Benguela Stream — PENR — position and weather

sailwx.info

Track history (hours):
 
Tides and Currents Weather Stations Pressure Air Temp Water Temp Dewpoint Dewpoint Depression Visibility Wind Speed Wind Dir Waves Ship Positions

Benguela Stream

Last reported at 2016-May-29 06:00 UTC. Time now 2016-May-29 07:44 UTC.
Position N 37°42' W 035°42'.

Length 150 m; beam 13 m.

Type: Cargo ship. MMSI: 244455000.

Wind from 280 at 17 knots

Waves 1.5 meters (5 feet), 7 second period

Barometer 1016.6 mb
Air temperature 18.5 ° C
Visibility: greater than 10.8 NM
Dewpoint 16.0 ° C
Water temperature 18.7 ° C

Date/timePositionNaut miles runAvg speedWind from/ knotsBaromVisibWave heightAir tempDewpointWater temp
2016-May-29 06:00N 37°42' W 035°42'11115.9 280 / 171016.610.8 1.518.516.018.7
2016-May-28 23:00N 38°48' W 033°48'11422.8 270 / 151016.7 5.4 1.019.016.0
2016-May-28 18:00N 39°54' W 031°48'10918.2 240 / 181013.510.8 1.018.015.5
2016-May-28 12:00N 41°00' W 029°54'10818.0 180 / 201014.7 5.4 1.015.814.416.3
2016-May-28 06:00N 42°00' W 027°54'33618.7 220 / 121015.8 5.4 1.015.0 9.215.0
2016-May-27 12:00N 44°54' W 021°18'45218.8 040 / 201009.110.8 1.514.010.814.6
2016-May-26 12:00N 48°06' W 011°24'28719.4 060 / 161013.6 5.4 1.014.511.713.0
2016-May-25 21:11N 49°42' W 004°33'3018.6
2016-May-25 19:33N 49°50' W 003°48'1918.6
2016-May-25 18:33N 49°55' W 003°20'2019.7
2016-May-25 17:33N 49°60' W 002°50'4721.6
2016-May-25 15:24N 50°00' W 001°38'2422.7
2016-May-25 14:20N 49°50' W 001°04'1620.9
2016-May-25 13:33N 49°42' W 000°41'1919.2
2016-May-25 12:33N 49°34' W 000°15'1413.6
2016-May-25 11:33N 49°29' E 000°05'3 2.8
2016-May-25 10:33N 49°28' E 000°09'0 0.0
2016-May-25 09:33N 49°28' E 000°09'0 0.0
2016-May-25 08:33N 49°28' E 000°09'0 0.0
2016-May-25 07:33N 49°28' E 000°09'0 0.0
2016-May-25 06:33N 49°28' E 000°09'0 0.0
2016-May-25 05:33N 49°28' E 000°09'0 0.0
2016-May-25 04:33N 49°28' E 000°09'0 0.0
2016-May-25 03:33N 49°28' E 000°09'0 0.0
2016-May-25 02:33N 49°28' E 000°09'0 0.0
2016-May-25 01:33N 49°28' E 000°09'0 0.0
2016-May-25 00:33N 49°28' E 000°09'7 6.9
2016-May-24 23:33N 49°30' W 000°01'1010.0
2016-May-24 22:34N 49°36' W 000°13'1918.7
2016-May-24 21:34N 49°53' W 000°25'3919.1
2016-May-24 19:32N 50°28' W 000°51'1616.9
2016-May-24 18:33N 50°43' W 001°02'6 5.6
2016-May-24 17:33N 50°49' W 001°05'0 0.0
2016-May-24 16:33N 50°49' W 001°05'0 0.0
2016-May-24 15:33N 50°49' W 001°05'0 0.0
2016-May-24 14:33N 50°49' W 001°05'0 0.0
2016-May-24 13:33N 50°49' W 001°05'0 0.0
2016-May-24 12:33N 50°49' W 001°05'0 0.0
2016-May-24 11:33N 50°49' W 001°05'0 0.0
2016-May-24 10:33N 50°49' W 001°05'0 0.0
2016-May-24 09:33N 50°49' W 001°05'0 0.0
2016-May-24 08:33N 50°49' W 001°05'0 0.0
2016-May-24 07:33N 50°49' W 001°05'0 0.0
2016-May-24 06:33N 50°49' W 001°05'0 0.0
2016-May-24 05:33N 50°49' W 001°05'0 0.0
2016-May-24 04:33N 50°49' W 001°05'0 0.0
2016-May-24 03:33N 50°49' W 001°05'0 0.0
2016-May-24 02:33N 50°49' W 001°05'0 0.0
2016-May-24 01:33N 50°49' W 001°05'0 0.0
2016-May-24 00:33N 50°49' W 001°05'0 0.0
2016-May-23 23:33N 50°49' W 001°05'0 0.0
2016-May-23 22:33N 50°49' W 001°05'0 0.0
2016-May-23 21:33N 50°49' W 001°05'0 0.0
2016-May-23 20:33N 50°49' W 001°05'0 0.0
2016-May-23 19:33N 50°49' W 001°05'0 0.0
2016-May-23 18:33N 50°49' W 001°05'0 0.0
2016-May-23 17:33N 50°49' W 001°05'0 0.0
2016-May-23 16:33N 50°49' W 001°05'0 0.0
2016-May-23 15:33N 50°49' W 001°05'0 0.0
2016-May-23 14:33N 50°49' W 001°05'0 0.0
2016-May-23 13:33N 50°49' W 001°05'0 0.0
2016-May-23 12:33N 50°49' W 001°05'0 0.0
2016-May-23 11:33N 50°49' W 001°05'0 0.0
2016-May-23 10:33N 50°49' W 001°05'0 0.0
2016-May-23 09:33N 50°49' W 001°05'0 0.0
2016-May-23 08:33N 50°49' W 001°05'0 0.0
2016-May-23 07:33N 50°49' W 001°05'0 0.0
2016-May-23 06:33N 50°49' W 001°05'0 0.0
2016-May-23 05:33N 50°49' W 001°05'0 0.0
2016-May-23 04:33N 50°49' W 001°05'0 0.0
2016-May-23 03:33N 50°49' W 001°05'0 0.0
2016-May-23 02:33N 50°49' W 001°05'0 0.0
2016-May-23 01:33N 50°49' W 001°05'0 0.0
2016-May-23 00:33N 50°49' W 001°05'0 0.0
2016-May-22 23:33N 50°49' W 001°05'0 0.0
2016-May-22 22:33N 50°49' W 001°05'0 0.0
2016-May-22 21:33N 50°49' W 001°05'0 0.0
2016-May-22 20:33N 50°49' W 001°05'2 1.7
2016-May-22 19:34N 50°47' W 001°06'6 5.9
2016-May-22 18:34N 50°43' W 000°59'6 5.6
2016-May-22 17:34N 50°37' W 000°59'7 7.3
2016-May-22 16:34N 50°31' W 001°05'1111.3
2016-May-22 15:34N 50°29' W 001°22'4513.6
2016-May-22 12:14N 50°18' W 002°30'1218.0
2016-May-22 11:34N 50°14' W 002°49'1918.7
2016-May-22 10:34N 50°09' W 003°17'1919.2
2016-May-22 09:34N 50°04' W 003°46'2019.7
2016-May-22 08:34N 49°59' W 004°15'2019.6
2016-May-22 07:34N 49°54' W 004°45'2120.4
2016-May-22 06:31N 49°48' W 005°16'13019.9
2016-May-22 00:00N 49°36' W 008°36'94719.3 230 / 161006.610.8 1.512.5 7.412.0
2016-May-19 23:00N 46°48' W 031°54'   270 / 231010.610.8 3.513.012.1
Track history (hours):
 
Tides and Currents Weather Stations Pressure Air Temp Water Temp Dewpoint Dewpoint Depression Visibility Wind Speed Wind Dir Waves Ship Positions

Benguela Stream

Last reported at 2016-May-29 06:00 UTC. Time now 2016-May-29 07:44 UTC.
Position N 37°42' W 035°42'.

Length 150 m; beam 13 m.

Type: Cargo ship. MMSI: 244455000.

Wind from 280 at 17 knots

Waves 1.5 meters (5 feet), 7 second period

Barometer 1016.6 mb
Air temperature 18.5 ° C
Visibility: greater than 10.8 NM
Dewpoint 16.0 ° C
Water temperature 18.7 ° C

Date/timePositionNaut miles runAvg speedWind from/ knotsBaromVisibWave heightAir tempDewpointWater temp
2016-May-29 06:00N 37°42' W 035°42'11115.9 280 / 171016.610.8 1.518.516.018.7
2016-May-28 23:00N 38°48' W 033°48'11422.8 270 / 151016.7 5.4 1.019.016.0
2016-May-28 18:00N 39°54' W 031°48'10918.2 240 / 181013.510.8 1.018.015.5
2016-May-28 12:00N 41°00' W 029°54'10818.0 180 / 201014.7 5.4 1.015.814.416.3
2016-May-28 06:00N 42°00' W 027°54'33618.7 220 / 121015.8 5.4 1.015.0 9.215.0
2016-May-27 12:00N 44°54' W 021°18'45218.8 040 / 201009.110.8 1.514.010.814.6
2016-May-26 12:00N 48°06' W 011°24'28719.4 060 / 161013.6 5.4 1.014.511.713.0
2016-May-25 21:11N 49°42' W 004°33'3018.6
2016-May-25 19:33N 49°50' W 003°48'1918.6
2016-May-25 18:33N 49°55' W 003°20'2019.7
2016-May-25 17:33N 49°60' W 002°50'4721.6
2016-May-25 15:24N 50°00' W 001°38'2422.7
2016-May-25 14:20N 49°50' W 001°04'1620.9
2016-May-25 13:33N 49°42' W 000°41'1919.2
2016-May-25 12:33N 49°34' W 000°15'1413.6
2016-May-25 11:33N 49°29' E 000°05'3 2.8
2016-May-25 10:33N 49°28' E 000°09'0 0.0
2016-May-25 09:33N 49°28' E 000°09'0 0.0
2016-May-25 08:33N 49°28' E 000°09'0 0.0
2016-May-25 07:33N 49°28' E 000°09'0 0.0
2016-May-25 06:33N 49°28' E 000°09'0 0.0
2016-May-25 05:33N 49°28' E 000°09'0 0.0
2016-May-25 04:33N 49°28' E 000°09'0 0.0
2016-May-25 03:33N 49°28' E 000°09'0 0.0
2016-May-25 02:33N 49°28' E 000°09'0 0.0
2016-May-25 01:33N 49°28' E 000°09'0 0.0
2016-May-25 00:33N 49°28' E 000°09'7 6.9
2016-May-24 23:33N 49°30' W 000°01'1010.0
2016-May-24 22:34N 49°36' W 000°13'1918.7
2016-May-24 21:34N 49°53' W 000°25'3919.1
2016-May-24 19:32N 50°28' W 000°51'1616.9
2016-May-24 18:33N 50°43' W 001°02'6 5.6
2016-May-24 17:33N 50°49' W 001°05'0 0.0
2016-May-24 16:33N 50°49' W 001°05'0 0.0
2016-May-24 15:33N 50°49' W 001°05'0 0.0
2016-May-24 14:33N 50°49' W 001°05'0 0.0
2016-May-24 13:33N 50°49' W 001°05'0 0.0
2016-May-24 12:33N 50°49' W 001°05'0 0.0
2016-May-24 11:33N 50°49' W 001°05'0 0.0
2016-May-24 10:33N 50°49' W 001°05'0 0.0
2016-May-24 09:33N 50°49' W 001°05'0 0.0
2016-May-24 08:33N 50°49' W 001°05'0 0.0
2016-May-24 07:33N 50°49' W 001°05'0 0.0
2016-May-24 06:33N 50°49' W 001°05'0 0.0
2016-May-24 05:33N 50°49' W 001°05'0 0.0
2016-May-24 04:33N 50°49' W 001°05'0 0.0
2016-May-24 03:33N 50°49' W 001°05'0 0.0
2016-May-24 02:33N 50°49' W 001°05'0 0.0
2016-May-24 01:33N 50°49' W 001°05'0 0.0
2016-May-24 00:33N 50°49' W 001°05'0 0.0
2016-May-23 23:33N 50°49' W 001°05'0 0.0
2016-May-23 22:33N 50°49' W 001°05'0 0.0
2016-May-23 21:33N 50°49' W 001°05'0 0.0
2016-May-23 20:33N 50°49' W 001°05'0 0.0
2016-May-23 19:33N 50°49' W 001°05'0 0.0
2016-May-23 18:33N 50°49' W 001°05'0 0.0
2016-May-23 17:33N 50°49' W 001°05'0 0.0
2016-May-23 16:33N 50°49' W 001°05'0 0.0
2016-May-23 15:33N 50°49' W 001°05'0 0.0
2016-May-23 14:33N 50°49' W 001°05'0 0.0
2016-May-23 13:33N 50°49' W 001°05'0 0.0
2016-May-23 12:33N 50°49' W 001°05'0 0.0
2016-May-23 11:33N 50°49' W 001°05'0 0.0
2016-May-23 10:33N 50°49' W 001°05'0 0.0
2016-May-23 09:33N 50°49' W 001°05'0 0.0
2016-May-23 08:33N 50°49' W 001°05'0 0.0
2016-May-23 07:33N 50°49' W 001°05'0 0.0
2016-May-23 06:33N 50°49' W 001°05'0 0.0
2016-May-23 05:33N 50°49' W 001°05'0 0.0
2016-May-23 04:33N 50°49' W 001°05'0 0.0
2016-May-23 03:33N 50°49' W 001°05'0 0.0
2016-May-23 02:33N 50°49' W 001°05'0 0.0
2016-May-23 01:33N 50°49' W 001°05'0 0.0
2016-May-23 00:33N 50°49' W 001°05'0 0.0
2016-May-22 23:33N 50°49' W 001°05'0 0.0
2016-May-22 22:33N 50°49' W 001°05'0 0.0
2016-May-22 21:33N 50°49' W 001°05'0 0.0
2016-May-22 20:33N 50°49' W 001°05'2 1.7
2016-May-22 19:34N 50°47' W 001°06'6 5.9
2016-May-22 18:34N 50°43' W 000°59'6 5.6
2016-May-22 17:34N 50°37' W 000°59'7 7.3
2016-May-22 16:34N 50°31' W 001°05'1111.3
2016-May-22 15:34N 50°29' W 001°22'4513.6
2016-May-22 12:14N 50°18' W 002°30'1218.0
2016-May-22 11:34N 50°14' W 002°49'1918.7
2016-May-22 10:34N 50°09' W 003°17'1919.2
2016-May-22 09:34N 50°04' W 003°46'2019.7
2016-May-22 08:34N 49°59' W 004°15'2019.6
2016-May-22 07:34N 49°54' W 004°45'2120.4
2016-May-22 06:31N 49°48' W 005°16'13019.9
2016-May-22 00:00N 49°36' W 008°36'94719.3 230 / 161006.610.8 1.512.5 7.412.0
2016-May-19 23:00N 46°48' W 031°54'   270 / 231010.610.8 3.513.012.1

Dump ship's entire track history